Time;durP1;ratioP1;P1;durP2;ratioP2;P2;SDS_P1;SDS_P2;PMS_P1;PMS_P2;Temp;Humidity;BMP_temperature;BMP_pressure;BME280_temperature;BME280_humidity;BME280_pressure;Samples;Min_cycle;Max_cycle;Signal;HPM_P1;HPM_P2
2024/04/07 00:00:37;;;;;;;;;4.50;4.25;;;;;18.67;55.17;100698.00;5044479;28;71994;-60
2024/04/07 00:03:03;;;;;;;;;5.50;4.75;;;;;18.65;54.71;100694.59;5055715;28;69140;-60
2024/04/07 00:05:29;;;;;;;;;4.75;3.50;;;;;18.63;54.83;100692.03;5050743;28;45484;-59
2024/04/07 00:07:55;;;;;;;;;3.75;3.00;;;;;18.64;55.07;100682.28;5045575;28;45237;-60
2024/04/07 00:10:21;;;;;;;;;3.75;2.00;;;;;18.63;54.92;100676.13;5048095;28;45433;-60
2024/04/07 00:12:46;;;;;;;;;7.50;4.00;;;;;18.60;54.63;100682.47;5056399;27;45441;-60
2024/04/07 00:15:12;;;;;;;;;8.50;2.00;;;;;18.59;54.90;100714.34;5055285;28;45485;-60
2024/04/07 00:17:37;;;;;;;;;8.00;3.25;;;;;18.59;54.56;100719.66;5047479;28;50175;-60
2024/04/07 00:20:03;;;;;;;;;3.25;2.00;;;;;18.58;54.76;100712.66;5051107;28;73186;-60
2024/04/07 00:22:28;;;;;;;;;2.75;2.00;;;;;18.56;54.19;100718.06;5049132;28;45419;-60
2024/04/07 00:24:56;;;;;;;;;2.00;2.00;;;;;18.55;54.08;100712.84;5053139;28;58443;-59
2024/04/07 00:27:21;;;;;;;;;1.50;1.25;;;;;18.52;54.05;100726.28;5056634;28;45421;-60
2024/04/07 00:29:46;;;;;;;;;4.75;1.75;;;;;18.51;53.60;100733.38;5052067;28;70039;-60
2024/04/07 00:32:12;;;;;;;;;1.75;1.75;;;;;18.48;53.85;100707.06;5056011;28;45797;-59
2024/04/07 00:34:39;;;;;;;;;3.50;2.00;;;;;18.47;53.83;100723.03;5055640;28;59440;-60
2024/04/07 00:37:04;;;;;;;;;4.00;1.00;;;;;18.48;53.54;100730.06;5053216;28;46291;-59
2024/04/07 00:39:29;;;;;;;;;0.00;0.00;;;;;18.47;53.11;100720.41;5047012;28;57640;-60
2024/04/07 00:41:55;;;;;;;;;1.00;1.00;;;;;18.44;53.56;100713.50;5056786;28;68656;-60
2024/04/07 00:44:20;;;;;;;;;3.25;1.00;;;;;18.42;53.23;100715.41;5055813;28;49681;-60
2024/04/07 00:46:45;;;;;;;;;1.25;1.25;;;;;18.41;53.73;100716.31;5050808;28;46214;-59
2024/04/07 00:49:11;;;;;;;;;2.25;1.00;;;;;18.39;53.57;100716.41;5047039;28;72598;-60
2024/04/07 00:51:36;;;;;;;;;1.75;0.75;;;;;18.37;53.52;100722.75;5052373;28;68428;-60
2024/04/07 00:54:02;;;;;;;;;3.50;1.00;;;;;18.36;53.57;100721.03;5058164;28;66032;-60
2024/04/07 00:56:27;;;;;;;;;1.00;1.00;;;;;18.34;53.56;100715.00;5055040;28;45348;-59
2024/04/07 00:58:53;;;;;;;;;3.00;0.00;;;;;18.32;53.51;100701.00;5059522;28;72193;-60
2024/04/07 01:01:18;;;;;;;;;3.75;1.00;;;;;18.29;53.60;100694.09;5059275;28;57299;-60
2024/04/07 01:03:43;;;;;;;;;1.75;0.75;;;;;18.27;53.60;100679.22;5058447;28;56032;-60
2024/04/07 01:06:09;;;;;;;;;1.25;0.75;;;;;18.28;53.86;100699.47;5058660;28;74334;-59
2024/04/07 01:08:35;;;;;;;;;2.50;1.00;;;;;18.25;53.57;100681.94;5039812;28;73272;-58
2024/04/07 01:11:00;;;;;;;;;0.50;0.50;;;;;18.26;53.51;100677.53;5033797;28;69404;-57
2024/04/07 01:13:27;;;;;;;;;2.00;0.00;;;;;18.26;53.44;100678.38;5055575;28;72100;-58
2024/04/07 01:15:52;;;;;;;;;1.25;1.00;;;;;18.23;53.37;100680.34;5059665;28;46366;-59
2024/04/07 01:18:18;;;;;;;;;1.00;1.00;;;;;18.21;53.28;100696.34;5058325;28;73305;-59
2024/04/07 01:20:44;;;;;;;;;2.25;1.00;;;;;18.14;53.59;100687.91;5058576;28;45490;-59
2024/04/07 01:23:18;;;;;;;;;1.75;1.00;;;;;18.14;53.68;100668.50;5054684;28;72112;-59
2024/04/07 01:25:44;;;;;;;;;0.00;0.00;;;;;18.11;53.89;100669.53;5058746;28;48030;-61
2024/04/07 01:28:11;;;;;;;;;0.50;0.00;;;;;18.08;53.77;100671.50;5058852;28;45544;-59
2024/04/07 01:30:36;;;;;;;;;2.50;1.00;;;;;18.05;53.87;100667.25;5054584;28;45541;-59
2024/04/07 01:33:02;;;;;;;;;1.25;1.25;;;;;18.02;53.78;100659.50;5044694;28;73132;-59
2024/04/07 01:35:28;;;;;;;;;2.75;0.50;;;;;17.99;53.86;100676.44;5059255;28;45384;-59
2024/04/07 01:37:53;;;;;;;;;1.00;0.00;;;;;17.95;53.74;100661.66;5054819;28;45505;-59
2024/04/07 01:40:19;;;;;;;;;0.75;0.75;;;;;17.94;54.04;100659.97;5057788;28;45532;-59
2024/04/07 01:42:44;;;;;;;;;0.50;0.50;;;;;17.92;54.17;100668.91;5058396;28;45801;-59
2024/04/07 01:45:10;;;;;;;;;0.75;0.75;;;;;17.91;54.27;100675.16;5052562;28;70405;-59
2024/04/07 01:47:38;;;;;;;;;2.00;0.75;;;;;17.88;54.17;100655.00;5056651;28;73160;-60
2024/04/07 01:50:04;;;;;;;;;0.75;0.75;;;;;17.89;54.09;100662.03;5050796;28;45229;-60
2024/04/07 01:52:29;;;;;;;;;2.00;0.25;;;;;17.89;54.04;100663.81;5058722;28;48055;-60
2024/04/07 01:54:56;;;;;;;;;0.50;0.00;;;;;17.89;54.27;100671.75;5059155;28;72226;-59
2024/04/07 01:57:21;;;;;;;;;2.00;0.00;;;;;17.89;54.00;100682.34;5046361;28;45621;-60
2024/04/07 01:59:47;;;;;;;;;2.50;2.50;;;;;17.91;54.28;100691.06;5059785;28;45259;-60
2024/04/07 02:02:13;;;;;;;;;4.75;3.50;;;;;17.90;54.30;100692.84;5056043;28;45309;-60
2024/04/07 02:04:38;;;;;;;;;1.50;1.50;;;;;17.90;54.47;100698.16;5049060;28;60623;-59
2024/04/07 02:07:03;;;;;;;;;4.00;1.00;;;;;17.91;54.01;100710.44;5054858;28;71979;-59
2024/04/07 02:09:29;;;;;;;;;2.00;0.75;;;;;17.91;54.24;100720.19;5057666;28;45275;-59
2024/04/07 02:11:55;;;;;;;;;2.75;0.00;;;;;17.88;54.36;100710.59;5058651;27;52885;-60
2024/04/07 02:14:20;;;;;;;;;0.00;0.00;;;;;17.90;54.46;100708.75;5058756;28;46407;-60
2024/04/07 02:16:45;;;;;;;;;0.00;0.00;;;;;17.89;54.21;100701.72;5056226;28;71996;-59
2024/04/07 02:19:13;;;;;;;;;1.00;0.75;;;;;17.89;54.27;100699.09;5059527;28;68866;-59
2024/04/07 02:21:38;;;;;;;;;1.00;0.00;;;;;17.88;54.33;100702.66;5055362;28;45690;-59
2024/04/07 02:24:04;;;;;;;;;0.00;0.00;;;;;17.87;54.20;100716.84;5044312;28;47206;-58
2024/04/07 02:26:30;;;;;;;;;0.00;0.00;;;;;17.86;54.26;100714.28;5050469;28;45438;-60
2024/04/07 02:28:55;;;;;;;;;0.50;0.00;;;;;17.85;53.97;100716.06;5058473;28;45364;-58
2024/04/07 02:31:21;;;;;;;;;1.50;0.00;;;;;17.84;54.43;100735.53;5056568;28;65714;-59
2024/04/07 02:33:46;;;;;;;;;0.25;0.25;;;;;17.82;54.30;100725.03;5058468;28;47855;-59
2024/04/07 02:36:12;;;;;;;;;0.00;0.00;;;;;17.82;54.35;100734.75;5054576;28;45456;-59
2024/04/07 02:38:38;;;;;;;;;0.50;0.00;;;;;17.83;54.32;100732.03;5044544;28;45325;-60
2024/04/07 02:41:03;;;;;;;;;3.25;0.75;;;;;17.82;54.80;100732.13;5059671;28;45396;-59
2024/04/07 02:43:29;;;;;;;;;0.75;0.00;;;;;17.79;55.10;100729.63;5059339;28;46280;-59
2024/04/07 02:48:38;;;;;;;;;0.00;0.00;;;;;17.75;56.22;100736.91;5050406;28;45229;-59
2024/04/07 02:51:04;;;;;;;;;1.25;0.00;;;;;17.70;56.76;100740.75;5047243;28;45534;-59
2024/04/07 02:53:29;;;;;;;;;0.00;0.00;;;;;17.64;57.13;100734.03;5058122;28;75542;-60
2024/04/07 02:55:54;;;;;;;;;0.00;0.00;;;;;17.58;57.37;100727.28;5059217;27;45382;-60
2024/04/07 02:58:20;;;;;;;;;0.00;0.00;;;;;17.53;57.73;100718.75;5056765;28;57240;-59
2024/04/07 03:00:45;;;;;;;;;0.00;0.00;;;;;17.50;57.83;100736.59;5040163;28;71979;-59
2024/04/07 03:03:10;;;;;;;;;0.00;0.00;;;;;17.47;58.10;100745.53;5057552;28;46564;-59
2024/04/07 03:05:39;;;;;;;;;0.75;0.75;;;;;17.44;58.34;100751.00;5056250;28;73158;-60
2024/04/07 03:08:05;;;;;;;;;2.50;0.00;;;;;17.38;58.30;100733.69;5054013;28;45423;-59
2024/04/07 03:10:30;;;;;;;;;1.00;0.00;;;;;17.40;58.31;100739.72;5054732;28;46381;-60
2024/04/07 03:12:56;;;;;;;;;0.00;0.00;;;;;17.36;58.41;100748.78;5059629;28;46040;-60
2024/04/07 03:15:21;;;;;;;;;0.00;0.00;;;;;17.34;58.78;100748.03;5058278;28;54493;-60
2024/04/07 03:17:47;;;;;;;;;3.00;1.00;;;;;17.32;58.66;100752.56;5045660;28;69217;-59
2024/04/07 03:20:12;;;;;;;;;0.25;0.00;;;;;17.30;58.47;100751.78;5045078;28;72374;-59
2024/04/07 03:22:38;;;;;;;;;0.50;0.25;;;;;17.27;59.01;100755.44;5049099;28;46065;-58
2024/04/07 03:25:03;;;;;;;;;0.00;0.00;;;;;17.28;58.84;100753.63;5056330;28;65492;-60
2024/04/07 03:27:29;;;;;;;;;6.75;1.50;;;;;17.27;58.67;100754.59;5057570;28;45368;-60
2024/04/07 03:29:54;;;;;;;;;2.25;0.00;;;;;17.24;58.79;100752.09;5047783;28;45681;-60
2024/04/07 03:32:19;;;;;;;;;0.75;0.50;;;;;17.24;58.99;100760.88;5055064;28;72164;-59
2024/04/07 03:34:44;;;;;;;;;3.25;1.75;;;;;17.23;59.01;100761.00;5055549;28;65101;-59
2024/04/07 03:37:10;;;;;;;;;1.75;0.00;;;;;17.24;58.94;100744.16;5047072;28;68342;-58
2024/04/07 03:39:35;;;;;;;;;3.00;1.75;;;;;17.23;59.24;100747.78;5057701;28;45378;-59
2024/04/07 03:42:00;;;;;;;;;1.75;1.75;;;;;17.21;59.17;100746.97;5056946;28;74994;-59
2024/04/07 03:44:26;;;;;;;;;2.25;0.50;;;;;17.20;59.32;100746.13;5057484;28;64870;-59
2024/04/07 03:46:51;;;;;;;;;0.25;0.25;;;;;17.22;59.24;100756.63;5056136;28;58348;-59
2024/04/07 03:49:17;;;;;;;;;2.50;0.75;;;;;17.23;59.14;100758.34;5043108;28;70572;-59
2024/04/07 03:51:42;;;;;;;;;0.75;0.50;;;;;17.23;59.49;100759.19;5049245;28;68236;-60
2024/04/07 03:54:07;;;;;;;;;0.50;0.50;;;;;17.23;59.20;100758.34;5056450;28;65530;-60
2024/04/07 03:56:33;;;;;;;;;0.50;0.25;;;;;17.24;59.56;100765.31;5055952;28;67446;-59
2024/04/07 03:58:58;;;;;;;;;0.00;0.00;;;;;17.26;59.25;100771.38;5057432;28;72934;-59
2024/04/07 04:01:23;;;;;;;;;0.00;0.00;;;;;17.28;59.34;100772.16;5050390;28;74285;-60
2024/04/07 04:03:49;;;;;;;;;0.75;0.75;;;;;17.29;59.26;100789.75;5052702;28;72791;-59
2024/04/07 04:06:15;;;;;;;;;1.50;0.50;;;;;17.29;59.16;100789.75;5059280;28;68301;-60
2024/04/07 04:08:40;;;;;;;;;0.00;0.00;;;;;17.29;59.26;100797.69;5055547;28;46271;-60
2024/04/07 04:11:06;;;;;;;;;0.50;0.50;;;;;17.28;59.36;100809.19;5058319;28;75278;-59
2024/04/07 04:13:33;;;;;;;;;0.00;0.00;;;;;17.29;59.51;100791.53;5029487;28;45407;-60
2024/04/07 04:15:59;;;;;;;;;2.00;0.75;;;;;17.30;59.39;100798.53;5053433;28;45728;-59
2024/04/07 04:18:25;;;;;;;;;0.00;0.00;;;;;17.31;59.16;100800.25;5059333;28;45310;-60
2024/04/07 04:20:50;;;;;;;;;0.25;0.25;;;;;17.31;59.32;100810.81;5060817;28;74889;-59
2024/04/07 04:23:15;;;;;;;;;0.50;0.25;;;;;17.30;59.43;100806.44;5051133;28;73319;-59
2024/04/07 04:25:40;;;;;;;;;1.00;0.75;;;;;17.31;59.49;100800.25;5049950;28;70457;-60
2024/04/07 04:28:06;;;;;;;;;1.00;0.00;;;;;17.29;59.62;100796.81;5060370;28;67154;-60
2024/04/07 04:30:33;;;;;;;;;1.50;0.50;;;;;17.28;59.40;100817.13;5060505;28;77981;-59
2024/04/07 04:32:58;;;;;;;;;0.00;0.00;;;;;17.28;59.52;100809.19;5062557;27;45504;-59
2024/04/07 04:35:24;;;;;;;;;2.25;0.00;;;;;17.27;59.42;100813.63;5061249;28;49055;-59
2024/04/07 04:37:49;;;;;;;;;2.00;0.75;;;;;17.26;59.58;100811.94;5054664;28;45292;-59
2024/04/07 04:40:15;;;;;;;;;2.00;0.00;;;;;17.27;59.76;100800.41;5054313;28;46128;-60
2024/04/07 04:42:40;;;;;;;;;2.00;0.00;;;;;17.27;59.77;100810.13;5053523;28;71975;-59
2024/04/07 04:45:06;;;;;;;;;1.50;0.50;;;;;17.26;59.66;100811.06;5059204;28;45538;-59
2024/04/07 04:47:34;;;;;;;;;0.00;0.00;;;;;17.27;59.74;100828.66;5058383;28;45467;-60
2024/04/07 04:50:00;;;;;;;;;0.00;0.00;;;;;17.25;59.76;100818.16;5044377;28;46189;-58
2024/04/07 04:52:30;;;;;;;;;0.25;0.25;;;;;17.26;59.88;100826.94;5059375;28;45430;-57
2024/04/07 04:54:58;;;;;;;;;1.00;0.50;;;;;17.24;59.82;100815.56;5056477;28;45238;-58
2024/04/07 04:57:24;;;;;;;;;0.75;0.50;;;;;17.24;59.92;100819.06;5056344;28;45289;-59
2024/04/07 04:59:52;;;;;;;;;0.00;0.00;;;;;17.23;59.95;100827.97;5049999;28;45494;-60
2024/04/07 05:02:18;;;;;;;;;1.00;0.50;;;;;17.23;59.74;100829.75;5060221;28;45441;-60
2024/04/07 05:04:43;;;;;;;;;1.00;0.00;;;;;17.20;59.84;100828.13;5058464;28;45372;-60
2024/04/07 05:07:09;;;;;;;;;0.00;0.00;;;;;17.19;59.93;100836.13;5049848;28;74335;-59
2024/04/07 05:09:34;;;;;;;;;0.75;0.00;;;;;17.20;59.88;100837.84;5057759;28;67121;-60
2024/04/07 05:11:59;;;;;;;;;1.50;0.00;;;;;17.20;59.85;100841.34;5058840;28;68901;-59
2024/04/07 05:14:25;;;;;;;;;0.75;0.75;;;;;17.19;60.00;100844.06;5051528;28;63957;-59
2024/04/07 05:16:50;;;;;;;;;1.50;0.50;;;;;17.18;60.24;100840.56;5057172;28;69079;-59
2024/04/07 05:19:16;;;;;;;;;0.50;0.25;;;;;17.18;60.11;100843.22;5058682;28;46059;-59
2024/04/07 05:21:42;;;;;;;;;0.00;0.00;;;;;17.16;60.23;100853.03;5059059;27;45469;-60
2024/04/07 05:24:09;;;;;;;;;2.00;0.75;;;;;17.15;60.14;100853.94;5060493;28;45549;-59
2024/04/07 05:26:34;;;;;;;;;3.25;0.75;;;;;17.15;60.01;100855.75;5054507;28;45501;-58
2024/04/07 05:28:59;;;;;;;;;0.50;0.00;;;;;17.13;60.12;100855.81;5058826;28;65512;-59
2024/04/07 05:31:24;;;;;;;;;0.75;0.75;;;;;17.14;60.30;100861.94;5055493;28;63399;-60
2024/04/07 05:33:50;;;;;;;;;0.00;0.00;;;;;17.10;60.36;100858.63;5059263;28;61958;-59
2024/04/07 05:36:15;;;;;;;;;0.50;0.50;;;;;17.10;60.33;100855.97;5045679;28;72889;-59
2024/04/07 05:38:42;;;;;;;;;1.50;0.00;;;;;17.10;60.26;100861.25;5055375;28;74549;-60
2024/04/07 05:41:08;;;;;;;;;0.50;0.00;;;;;17.12;60.17;100880.53;5058478;28;45355;-59
2024/04/07 05:43:34;;;;;;;;;1.00;0.50;;;;;17.14;60.29;100885.75;5061296;28;45248;-59
2024/04/07 05:46:07;;;;;;;;;0.00;0.00;;;;;17.13;60.15;100895.50;5056361;28;45363;-59
2024/04/07 05:48:32;;;;;;;;;0.75;0.00;;;;;17.12;60.56;100896.41;5055565;28;46244;-59
2024/04/07 05:50:58;;;;;;;;;0.50;0.50;;;;;17.14;60.40;100902.50;5041473;28;45288;-59
2024/04/07 05:53:23;;;;;;;;;0.00;0.00;;;;;17.12;60.36;100885.81;5075212;27;46219;-59
2024/04/07 05:55:49;;;;;;;;;0.00;0.00;;;;;17.11;60.76;100885.94;5053489;28;66760;-59
2024/04/07 05:58:15;;;;;;;;;0.00;0.00;;;;;17.14;60.38;100899.84;5052412;28;72740;-59
2024/04/07 06:00:41;;;;;;;;;0.50;0.50;;;;;17.14;60.64;100897.22;5044679;28;45170;-58
2024/04/07 06:03:06;;;;;;;;;3.00;0.75;;;;;17.13;60.55;100906.06;5054851;28;45279;-59
2024/04/07 06:05:32;;;;;;;;;0.75;0.75;;;;;17.13;60.64;100898.13;5044690;28;61383;-59
2024/04/07 06:07:58;;;;;;;;;0.50;0.50;;;;;17.15;60.57;100912.13;5052501;28;47657;-60
2024/04/07 06:10:23;;;;;;;;;1.75;1.00;;;;;17.16;60.58;100913.00;5051612;28;47169;-59
2024/04/07 06:12:49;;;;;;;;;2.75;0.75;;;;;17.15;60.82;100920.06;5051523;28;68254;-59
2024/04/07 06:15:14;;;;;;;;;1.50;1.00;;;;;17.14;60.69;100915.72;5048419;28;45234;-60
2024/04/07 06:17:39;;;;;;;;;1.00;1.00;;;;;17.14;60.85;100913.06;5057942;28;73457;-59
2024/04/07 06:20:05;;;;;;;;;1.00;1.00;;;;;17.15;60.71;100908.63;5055769;28;45407;-59
2024/04/07 06:22:30;;;;;;;;;0.00;0.00;;;;;17.13;60.54;100913.16;5049430;28;45347;-59
2024/04/07 06:24:57;;;;;;;;;0.00;0.00;;;;;17.13;60.76;100921.94;5046429;28;45497;-59
2024/04/07 06:27:22;;;;;;;;;0.50;0.00;;;;;17.14;60.90;100920.13;5058261;28;46963;-59
2024/04/07 06:29:48;;;;;;;;;0.00;0.00;;;;;17.12;60.25;100925.50;5044264;28;45300;-59
2024/04/07 06:32:13;;;;;;;;;1.50;0.50;;;;;17.12;60.78;100928.13;5057896;28;64583;-59
2024/04/07 06:34:39;;;;;;;;;1.75;0.50;;;;;17.13;60.85;100940.44;5053588;28;45441;-59
2024/04/07 06:37:04;;;;;;;;;1.25;0.00;;;;;17.10;60.57;100943.22;5051859;28;52748;-59
2024/04/07 06:39:30;;;;;;;;;0.00;0.00;;;;;17.13;60.69;100955.47;5053663;28;45256;-59
2024/04/07 06:41:55;;;;;;;;;2.25;0.50;;;;;17.12;60.63;100956.38;5052458;28;45501;-59
2024/04/07 06:44:20;;;;;;;;;2.00;0.50;;;;;17.12;60.64;100964.31;5058859;28;74187;-59
2024/04/07 06:46:46;;;;;;;;;0.25;0.25;;;;;17.09;60.52;100960.06;5057238;28;75164;-60
2024/04/07 06:49:11;;;;;;;;;1.25;0.00;;;;;17.08;60.39;100961.81;5035901;28;46587;-59
2024/04/07 06:51:36;;;;;;;;;3.00;0.75;;;;;17.08;60.60;100968.91;5058154;28;63979;-59
2024/04/07 06:54:02;;;;;;;;;0.25;0.25;;;;;17.08;60.52;100982.13;5058805;28;73296;-60
2024/04/07 06:56:28;;;;;;;;;0.00;0.00;;;;;17.06;60.51;100976.91;5059885;28;48122;-59
2024/04/07 06:58:53;;;;;;;;;0.25;0.25;;;;;17.08;60.46;100977.69;5058713;28;45304;-60
2024/04/07 07:01:19;;;;;;;;;1.25;0.00;;;;;17.05;60.40;100967.28;5039242;28;69335;-60
2024/04/07 07:03:44;;;;;;;;;0.00;0.00;;;;;17.03;60.62;100969.16;5053415;28;45365;-60
2024/04/07 07:06:13;;;;;;;;;2.25;0.00;;;;;17.06;60.45;100966.34;5053857;28;67944;-60
2024/04/07 07:08:42;;;;;;;;;2.50;0.00;;;;;17.04;60.39;100957.63;5051809;28;45485;-60
2024/04/07 07:11:08;;;;;;;;;0.00;0.00;;;;;17.04;60.38;100965.56;5055413;28;45256;-60
2024/04/07 07:13:40;;;;;;;;;2.00;1.25;;;;;17.05;60.34;100974.34;5071654;27;45530;-59
2024/04/07 07:16:05;;;;;;;;;0.25;0.00;;;;;17.04;60.47;100970.00;5048613;27;46234;-60
2024/04/07 07:18:30;;;;;;;;;1.50;0.00;;;;;17.04;60.44;100965.56;5050488;28;60317;-59
2024/04/07 07:20:56;;;;;;;;;0.00;0.00;;;;;17.05;60.60;100975.22;5056246;28;69177;-57
2024/04/07 07:23:22;;;;;;;;;2.50;0.50;;;;;17.05;60.79;100967.28;5057552;28;71100;-59
2024/04/07 07:25:47;;;;;;;;;2.75;0.00;;;;;17.08;60.56;100966.25;5048046;28;45895;-58
2024/04/07 07:28:12;;;;;;;;;1.00;1.00;;;;;17.08;60.33;100974.19;5045407;28;60901;-59
2024/04/07 07:30:38;;;;;;;;;4.75;0.75;;;;;17.10;60.38;100982.06;5053874;28;69337;-59
2024/04/07 07:33:03;;;;;;;;;0.75;0.75;;;;;17.10;60.64;100987.34;5057893;28;45123;-59
2024/04/07 07:35:29;;;;;;;;;0.75;0.75;;;;;17.13;60.46;100998.63;5046732;28;46348;-59
2024/04/07 07:37:55;;;;;;;;;1.00;0.00;;;;;17.14;60.36;100994.19;5049583;28;45504;-59
2024/04/07 07:40:20;;;;;;;;;0.75;0.00;;;;;17.17;60.26;100988.75;5053905;28;45320;-59
2024/04/07 07:42:46;;;;;;;;;0.50;0.50;;;;;17.19;60.41;100990.41;5047217;28;75542;-59
2024/04/07 07:45:11;;;;;;;;;1.00;0.75;;;;;17.25;60.40;100987.41;5057245;28;74311;-59
2024/04/07 07:47:36;;;;;;;;;1.00;0.75;;;;;17.33;60.03;100987.03;5044809;28;73025;-59
2024/04/07 07:50:02;;;;;;;;;0.75;0.50;;;;;17.40;60.18;100995.50;5049397;28;67887;-59
2024/04/07 07:52:27;;;;;;;;;0.75;0.00;;;;;17.46;59.49;100977.53;5056752;28;45511;-59
2024/04/07 07:54:52;;;;;;;;;2.00;2.00;;;;;17.57;59.83;100986.72;5050990;28;73963;-60
2024/04/07 07:57:18;;;;;;;;;2.25;0.00;;;;;17.63;59.64;100989.00;5043368;28;71257;-60
2024/04/07 07:59:43;;;;;;;;;1.00;1.00;;;;;17.70;59.44;100984.25;5049629;28;68851;-58
2024/04/07 08:02:08;;;;;;;;;2.25;0.75;;;;;17.73;59.28;100982.31;5043513;28;45474;-59
2024/04/07 08:04:34;;;;;;;;;4.00;0.50;;;;;17.81;59.34;100993.34;5049265;28;75602;-60
2024/04/07 08:06:59;;;;;;;;;1.00;1.00;;;;;17.82;59.15;100973.88;5042393;28;45321;-60
2024/04/07 08:09:24;;;;;;;;;2.50;0.75;;;;;17.84;58.86;100977.28;5057291;28;69261;-60
2024/04/07 08:11:50;;;;;;;;;1.00;0.75;;;;;17.87;58.74;100983.41;5060747;28;45492;-59
2024/04/07 08:14:16;;;;;;;;;4.00;1.00;;;;;17.90;58.78;100981.44;5053049;28;47091;-59
2024/04/07 08:16:41;;;;;;;;;1.00;1.00;;;;;17.95;58.98;100991.78;5058997;28;71526;-59
2024/04/07 08:19:08;;;;;;;;;1.00;0.50;;;;;17.95;58.62;100987.31;5060157;28;45253;-59
2024/04/07 08:21:34;;;;;;;;;1.00;0.50;;;;;18.00;58.84;100992.38;5053999;28;45356;-60
2024/04/07 08:23:59;;;;;;;;;3.25;1.00;;;;;18.04;58.36;100996.56;5062701;28;46073;-58
2024/04/07 08:26:25;;;;;;;;;3.75;1.00;;;;;18.07;58.29;100998.22;5058840;28;54892;-59
2024/04/07 08:28:50;;;;;;;;;2.75;1.25;;;;;18.08;58.30;101000.78;5051712;28;45777;-59
2024/04/07 08:31:15;;;;;;;;;1.00;0.75;;;;;18.11;58.23;100997.09;5048308;28;45449;-57
2024/04/07 08:33:41;;;;;;;;;3.00;1.75;;;;;18.14;58.19;100999.59;5057261;28;75331;-60
2024/04/07 08:36:06;;;;;;;;;0.75;0.75;;;;;18.16;58.37;100997.72;5053714;28;71435;-57
2024/04/07 08:38:31;;;;;;;;;1.00;1.00;;;;;18.19;58.06;101006.34;5055110;28;45421;-58
2024/04/07 08:40:57;;;;;;;;;0.00;0.00;;;;;18.20;58.07;101004.53;5058933;28;72914;-60
2024/04/07 08:43:23;;;;;;;;;3.00;0.75;;;;;18.19;58.02;101006.34;5057598;28;74927;-59
2024/04/07 08:45:49;;;;;;;;;2.00;1.00;;;;;18.18;57.72;101003.78;5057193;28;45271;-59
2024/04/07 08:48:17;;;;;;;;;0.50;0.50;;;;;18.23;57.27;101014.13;5057555;28;45485;-58
2024/04/07 08:50:44;;;;;;;;;0.75;0.75;;;;;18.23;57.39;101012.31;5058864;28;45122;-61
2024/04/07 08:53:10;;;;;;;;;4.00;1.25;;;;;18.25;57.18;101018.38;5061002;28;46301;-61
2024/04/07 08:55:36;;;;;;;;;1.25;0.00;;;;;18.25;57.09;101005.16;5043377;28;45395;-61
2024/04/07 08:58:03;;;;;;;;;3.00;1.00;;;;;18.25;56.88;101002.50;5051248;28;66100;-61
2024/04/07 09:00:29;;;;;;;;;4.00;1.25;;;;;18.28;57.07;101006.78;5059567;28;45352;-62
2024/04/07 09:02:55;;;;;;;;;1.00;1.00;;;;;18.31;56.89;101003.94;5042029;28;66457;-64
2024/04/07 09:05:20;;;;;;;;;0.75;0.75;;;;;18.36;56.76;101008.06;5042278;28;45482;-63
2024/04/07 09:07:45;;;;;;;;;0.75;0.75;;;;;18.39;56.67;101013.19;5058705;28;68112;-64
2024/04/07 09:10:11;;;;;;;;;3.25;0.75;;;;;18.45;56.39;101009.38;5054186;28;73197;-62
2024/04/07 09:12:37;;;;;;;;;3.25;1.00;;;;;18.48;56.44;101008.31;5054356;28;45485;-63
2024/04/07 09:15:02;;;;;;;;;0.75;0.75;;;;;18.51;56.05;101010.81;5059151;28;45444;-63
2024/04/07 09:17:29;;;;;;;;;1.25;1.25;;;;;18.54;55.80;101005.34;5061125;28;45431;-63
2024/04/07 09:19:54;;;;;;;;;2.00;1.00;;;;;18.54;55.68;101006.19;5057892;28;45435;-62
2024/04/07 09:22:20;;;;;;;;;2.50;0.75;;;;;18.59;55.89;100997.97;5058077;28;76083;-63
2024/04/07 09:24:45;;;;;;;;;1.75;0.75;;;;;18.65;55.70;100997.63;5052772;28;45489;-61
2024/04/07 09:27:12;;;;;;;;;1.25;0.00;;;;;18.71;55.29;100989.31;5039377;28;45312;-63
2024/04/07 09:29:39;;;;;;;;;3.75;1.00;;;;;18.77;55.50;101002.25;5051735;28;45513;-63
2024/04/07 09:32:05;;;;;;;;;2.75;1.75;;;;;18.80;55.20;100993.25;5050849;28;46385;-63
2024/04/07 09:34:31;;;;;;;;;2.50;1.00;;;;;18.82;55.27;100988.72;5053952;28;46779;-63
2024/04/07 09:36:59;;;;;;;;;0.25;0.25;;;;;18.92;54.75;100987.25;5048436;28;45310;-63
2024/04/07 09:39:25;;;;;;;;;1.75;0.75;;;;;19.02;54.66;100981.44;5052455;28;45320;-63
2024/04/07 09:41:52;;;;;;;;;1.00;1.00;;;;;19.09;54.86;100980.97;5056496;28;46091;-63
2024/04/07 09:44:19;;;;;;;;;1.00;0.50;;;;;19.15;54.50;100979.75;5050113;28;45711;-64
2024/04/07 09:46:45;;;;;;;;;2.00;1.00;;;;;19.19;54.07;100962.72;5053383;28;45347;-64
2024/04/07 09:49:10;;;;;;;;;2.50;0.00;;;;;19.25;53.76;100969.47;5051407;28;51383;-63
2024/04/07 09:51:42;;;;;;;;;3.00;1.00;;;;;19.33;53.74;100964.53;5050624;28;45986;-64
2024/04/07 09:54:14;;;;;;;;;1.00;0.25;;;;;19.38;53.62;100969.59;5053743;28;45750;-63
2024/04/07 09:56:41;;;;;;;;;4.50;2.00;;;;;19.42;53.66;100965.78;5054880;28;45619;-63
2024/04/07 09:59:07;;;;;;;;;1.00;1.00;;;;;19.47;53.70;100972.53;5039484;28;45714;-64
2024/04/07 10:01:33;;;;;;;;;2.00;1.00;;;;;19.53;52.91;100976.63;5054634;28;73062;-64
2024/04/07 10:04:02;;;;;;;;;1.25;0.50;;;;;19.60;53.34;100974.44;5047136;28;63961;-65
2024/04/07 10:06:30;;;;;;;;;1.00;1.00;;;;;19.65;53.02;100975.00;5055277;28;45213;-64
2024/04/07 10:08:55;;;;;;;;;0.25;0.25;;;;;19.67;52.63;100975.75;5058704;28;45335;-65
2024/04/07 10:11:20;;;;;;;;;1.00;0.25;;;;;19.70;52.52;100975.56;5056159;28;53304;-64
2024/04/07 10:13:46;;;;;;;;;3.00;0.75;;;;;19.68;52.54;100972.16;5059111;28;49877;-66
2024/04/07 10:16:16;;;;;;;;;2.75;1.25;;;;;19.63;52.28;100953.84;5026620;28;45409;-66
2024/04/07 10:18:42;;;;;;;;;2.75;0.75;;;;;19.64;52.27;100957.38;5057610;28;45780;-73
2024/04/07 10:21:08;;;;;;;;;3.00;1.00;;;;;19.70;52.46;100954.34;5039653;28;48580;-73
2024/04/07 10:23:35;;;;;;;;;3.50;1.00;;;;;19.83;52.49;100946.50;5024920;28;45369;-70
2024/04/07 10:26:05;;;;;;;;;4.00;1.00;;;;;19.92;52.40;100943.28;5059931;28;45573;-67
2024/04/07 10:28:50;;;;;;;;;3.00;1.00;;;;;19.98;52.07;100957.97;5042472;28;45545;-64
2024/04/07 10:31:24;;;;;;;;;3.25;1.25;;;;;19.97;51.52;100953.59;5046658;28;45324;-64
2024/04/07 10:33:50;;;;;;;;;3.25;1.00;;;;;19.96;51.81;100941.28;5052762;28;45812;-65
2024/04/07 10:36:18;;;;;;;;;3.00;1.75;;;;;19.96;51.77;100947.44;5047655;28;45379;-65
2024/04/07 10:38:45;;;;;;;;;2.00;0.75;;;;;19.95;51.91;100959.00;5053315;28;45540;-68
2024/04/07 10:41:22;;;;;;;;;2.00;1.75;;;;;19.96;51.63;100954.56;5057960;28;45396;-61
2024/04/07 10:43:47;;;;;;;;;4.00;2.75;;;;;20.01;51.61;100953.31;5058072;28;45283;-62
2024/04/07 10:46:12;;;;;;;;;2.00;1.00;;;;;20.04;51.38;100955.78;5054422;28;66470;-63
2024/04/07 10:48:38;;;;;;;;;5.00;4.25;;;;;20.09;51.36;100960.78;5057380;28;45501;-65
2024/04/07 10:51:06;;;;;;;;;2.00;1.00;;;;;20.08;50.95;100967.06;5038268;28;49441;-64
2024/04/07 10:53:32;;;;;;;;;3.75;0.25;;;;;20.06;51.10;100963.63;5057507;28;45978;-68
2024/04/07 10:55:57;;;;;;;;;1.75;1.00;;;;;20.05;51.11;100965.44;5058050;28;45445;-63
2024/04/07 10:58:22;;;;;;;;;7.75;3.25;;;;;20.09;50.96;100960.78;5046856;28;73052;-61
2024/04/07 11:00:48;;;;;;;;;15.75;9.75;;;;;20.12;50.98;100959.75;5055257;28;45694;-63
2024/04/07 11:03:14;;;;;;;;;14.75;10.50;;;;;20.19;50.90;100956.59;5055120;28;72301;-66
2024/04/07 11:05:39;;;;;;;;;2.75;2.75;;;;;20.27;50.21;100949.00;5058236;28;45579;-67
2024/04/07 11:08:05;;;;;;;;;2.00;1.75;;;;;20.38;50.33;100950.97;5051616;28;45401;-71
2024/04/07 11:10:37;;;;;;;;;3.25;2.00;;;;;20.52;49.66;100935.91;5056325;28;45529;-62
2024/04/07 11:13:04;;;;;;;;;3.25;1.25;;;;;20.61;50.24;100937.94;5056030;28;45509;-64
2024/04/07 11:15:30;;;;;;;;;2.50;1.00;;;;;20.64;49.55;100948.41;5057463;28;45511;-60
2024/04/07 11:17:57;;;;;;;;;1.00;1.00;;;;;20.67;49.33;100957.06;5051572;28;45700;-62
2024/04/07 11:20:23;;;;;;;;;3.75;1.50;;;;;20.64;49.37;100951.09;5058830;28;45403;-66